Flight Track Log - Related Links

Times and Time Zones

All times are in EDT time to prevent confusion due to time zone crossing. See the N778AN flight status page for this flight to view local times or setup timezone preferences in your user account.

Time Position Orientation Groundspeed Altitude Reporting Facility
EDT Latitude Longitude Course Direction KTS MPH feet Rate Location/Type
Wed 09:13:52 PM 40.6450 -73.7680 33° Northeast 163 188  Level FlightAware ADS-B
Wed 09:14:22 PM 40.6640 -73.7510 34° Northeast 157 181 1,000 1,600 Climbing FlightAware ADS-B
Wed 09:14:37 PM 40.6670 -73.7370 74° East 169 194 1,200 900 Climbing FlightAware ADS-B
Wed 09:15:02 PM 40.6690 -73.7110 84° East 192 221 1,600 900 Climbing FlightAware ADS-B
Wed 09:15:17 PM 40.6660 -73.6920 102° East 207 238 1,800 933 Climbing FlightAware ADS-B
Wed 09:15:47 PM 40.6520 -73.6530 115° Southeast 246 283 2,300 1,636 Climbing FlightAware ADS-B
Wed 09:16:12 PM 40.6400 -73.6210 116° Southeast 247 284 3,300 2,182 Climbing FlightAware ADS-B
Wed 09:16:42 PM 40.6240 -73.5800 117° Southeast 252 290 4,300 1,309 Climbing FlightAware ADS-B
Wed 09:17:07 PM 40.6100 -73.5450 118° Southeast 249 287 4,500 218 Climbing FlightAware ADS-B
Wed 09:17:37 PM 40.5950 -73.5050 116° Southeast 249 287 4,500  Level FlightAware ADS-B
Wed 09:18:07 PM 40.5790 -73.4650 118° Southeast 250 288 4,500  Level FlightAware ADS-B
Wed 09:18:22 PM 40.5710 -73.4460 119° Southeast 251 289 4,500 750 Level FlightAware ADS-B
Wed 09:18:47 PM 40.5570 -73.4090 116° Southeast 259 298 5,000 1,964 Climbing FlightAware ADS-B
Wed 09:19:17 PM 40.5410 -73.3680 117° Southeast 252 290 6,300 2,634 Climbing FlightAware ADS-B
Wed 09:19:28 PM 40.5341 -73.3507 118° Southeast 257 296 6,800 1,778 Climbing FlightAware ADS-B
Wed 09:19:44 PM 40.5254 -73.3280 117° Southeast 269 310 7,100 1,688 Climbing FlightAware ADS-B
Wed 09:20:00 PM 40.5158 -73.3046 118° Southeast 271 312 7,700 2,182 Climbing FlightAware ADS-B
Wed 09:20:17 PM 40.5058 -73.2798 118° Southeast 274 315 8,300 2,270 Climbing FlightAware ADS-B
Wed 09:20:37 PM 40.4937 -73.2504 118° Southeast 277 319 9,100 2,229 Climbing FlightAware ADS-B
Wed 09:20:52 PM 40.4847 -73.2270 117° Southeast 279 321 9,600 1,800 Climbing FlightAware ADS-B
Wed 09:21:07 PM 40.4756 -73.2039 117° Southeast 288 331 10,000 720 Climbing FlightAware ADS-B
Wed 09:21:42 PM 40.4526 -73.1472 118° Southeast 292 336 10,200 971 Climbing FlightAware ADS-B
Wed 09:22:15 PM 40.4277 -73.0849 118° Southeast 350 403 11,100 1,913 Climbing FlightAware ADS-B
Wed 09:22:51 PM 40.3995 -73.0146 118° Southeast 371 427 12,400 2,516 Climbing FlightAware ADS-B
Wed 09:23:17 PM 40.3885 -72.9597 105° East 370 426 13,700 3,000 Climbing FlightAware ADS-B
Wed 09:23:25 PM 40.3899 -72.9417 84° East 369 425 14,100 2,700 Climbing FlightAware ADS-B
Wed 09:23:57 PM 40.4016 -72.8710 78° East 375 432 15,500 2,700 Climbing FlightAware ADS-B
Wed 09:24:45 PM 40.4189 -72.7618 78° East 391 450 17,700 2,815 Climbing FlightAware ADS-B
Wed 09:25:18 PM 40.4318 -72.6836 78° East 395 455 19,300 2,559 Climbing FlightAware ADS-B
Wed 09:25:53 PM 40.4431 -72.6020 80° East 406 467 20,600 2,486 Climbing FlightAware ADS-B
Wed 09:26:28 PM 40.4557 -72.5150 79° East 411 473 22,200 2,507 Climbing FlightAware ADS-B
Wed 09:27:00 PM 40.4669 -72.4371 79° East 416 479 23,400 2,239 Climbing FlightAware ADS-B
Wed 09:27:35 PM 40.4783 -72.3484 80° East 416 479 24,700 2,108 Climbing FlightAware ADS-B
Wed 09:28:14 PM 40.4913 -72.2501 80° East 428 493 26,000 1,862 Climbing FlightAware ADS-B
Wed 09:29:02 PM 40.5071 -72.1252 81° East 433 498 27,400 1,732 Climbing FlightAware ADS-B
Wed 09:29:51 PM 40.5274 -71.9973 78° East 440 506 28,800 1,906 Climbing FlightAware ADS-B
Wed 09:30:27 PM 40.5410 -71.9100 78° East 438 504 30,100 2,444 Climbing FlightAware ADS-B
Wed 09:31:12 PM 40.5570 -71.7920 80° East 424 488 32,100 1,412 Climbing FlightAware ADS-B
Wed 09:31:52 PM 40.5690 -71.7060 80° East 423 487 32,100 1,680 Level FlightAware ADS-B
Wed 09:32:27 PM 40.5820 -71.6110 80° East 415 478 34,200 2,753 Climbing FlightAware ADS-B
Wed 09:33:17 PM 40.6000 -71.4850 79° East 400 460 36,000 1,906 Climbing FlightAware ADS-B
Wed 09:33:52 PM 40.6120 -71.4000 79° East 394 453 36,900 988 Climbing FlightAware ADS-B
Wed 09:34:42 PM 40.6260 -71.2920 80° East 392 451 37,400 867 Climbing FlightAware ADS-B
Wed 09:35:22 PM 40.6390 -71.1960 80° East 395 455 38,200 800 Climbing FlightAware ADS-B
Wed 09:35:57 PM 40.6500 -71.1090 81° East 402 463 38,400 253 Climbing FlightAware ADS-B
Wed 09:36:57 PM 40.6680 -70.9770 80° East 409 471 38,600 120 Climbing FlightAware ADS-B
Wed 09:37:37 PM 40.6790 -70.8940 80° East 409 471 38,600 185 Level FlightAware ADS-B
Wed 09:39:07 PM 40.7120 -70.6410 80° East 421 484 39,000 137 Climbing FlightAware ADS-B
Wed 09:40:32 PM 40.7390 -70.4290 80° East 424 488 39,000  Level FlightAware ADS-B
Wed 09:41:02 PM 40.7470 -70.3640 81° East 424 488 39,000  Level FlightAware ADS-B
Wed 09:43:47 PM 40.8010 -69.9260 81° East 431 496 39,000  Level FlightAware ADS-B
Wed 09:44:27 PM 40.8130 -69.8380 80° East 431 496 39,000  Level FlightAware ADS-B
Wed 09:45:07 PM 40.8250 -69.7500 80° East 431 496 39,000  Level FlightAware ADS-B
Wed 09:45:47 PM 40.8360 -69.6610 81° East 431 496 39,000  Level FlightAware ADS-B
Wed 09:46:27 PM 40.8480 -69.5730 80° East 431 496 39,000  Level FlightAware ADS-B
Wed 09:46:57 PM 40.8570 -69.5070 80° East 431 496 39,000  Level FlightAware ADS-B
Wed 09:48:42 PM 40.8910 -69.1610 82° East 433 498 39,000  Level FlightAware ADS-B
Wed 09:49:27 PM 40.9040 -69.0440 82° East 433 498 39,000  Level FlightAware ADS-B
Wed 09:50:07 PM 40.9150 -68.9550 81° East 433 498 39,000  Level FlightAware ADS-B
Wed 09:50:57 PM 40.9280 -68.8440 81° East 433 498 39,000  Level FlightAware ADS-B
Wed 09:51:37 PM 40.9390 -68.7550 81° East 433 498 39,000  Level FlightAware ADS-B
Wed 09:52:17 PM 40.9490 -68.6660 82° East 433 498 39,000  Level FlightAware ADS-B
Wed 09:52:57 PM 40.9600 -68.5760 81° East 433 498 39,000  Level FlightAware ADS-B
Wed 09:53:37 PM 40.9710 -68.4870 81° East 433 498 39,000  Level FlightAware ADS-B
Wed 09:54:07 PM 40.9790 -68.4210 81° East 433 498 39,000  Level FlightAware ADS-B
Wed 09:54:47 PM 40.9890 -68.3310 82° East 433 498 39,000  Level FlightAware ADS-B
Wed 09:55:27 PM 41.0000 -68.2420 81° East 433 498 39,000  Level FlightAware ADS-B
Wed 09:56:07 PM 41.0110 -68.1530 81° East 433 498 39,000  Level FlightAware ADS-B
Wed 09:56:57 PM 41.0240 -68.0420 81° East 433 498 39,000  Level FlightAware ADS-B
Wed 09:57:37 PM 41.0350 -67.9520 81° East 433 498 39,000  Level FlightAware ADS-B
Wed 09:58:17 PM 41.0450 -67.8630 81° East 433 498 39,000  Level FlightAware ADS-B
Wed 09:58:57 PM 41.0560 -67.7740 81° East 433 498 39,000 -56 Level FlightAware ADS-B
Wed 10:00:05 PM 41.0850 -67.3236 81° East 449 517 38,900  Descending New York Center
Wed 10:01:06 PM 41.0969 -67.1633 84° East 444 511 39,000 44 Climbing New York Center
Wed 10:02:21 PM 41.1167 -67.0000 78° East 450 518 39,000  Level New York Oceanic (ODAPS)
Wed 10:08:20 PM 41.2667 -66.0000 79° East 455 524 39,000  Level New York Oceanic (ODAPS)
Wed 10:09:00 PM 41.2892 -65.8741 79° East 450 518 39,000  Level FlightAware Transoceanic
Wed 10:10:00 PM 41.3130 -65.7128 79° East 450 518 39,000  Level FlightAware Transoceanic
Wed 10:11:00 PM 41.3365 -65.5514 79° East 450 518 39,000  Level FlightAware Transoceanic
Wed 10:12:00 PM 41.3598 -65.3898 79° East 450 518 39,000  Level FlightAware Transoceanic
Wed 10:13:00 PM 41.3829 -65.2282 79° East 450 518 39,000  Level FlightAware Transoceanic
Wed 10:14:00 PM 41.4104 -65.0099 79° East 455 524 39,000  Level FlightAware Transoceanic
Wed 10:15:00 PM 41.4336 -64.8444 79° East 455 524 39,000  Level FlightAware Transoceanic
Wed 10:16:00 PM 41.4565 -64.6789 80° East 455 524 39,000  Level FlightAware Transoceanic
Wed 10:17:00 PM 41.4791 -64.5132 80° East 455 524 39,000  Level FlightAware Transoceanic
Wed 10:18:00 PM 41.5016 -64.3474 80° East 455 524 39,000  Level FlightAware Transoceanic
Wed 10:19:00 PM 41.5238 -64.1815 80° East 455 524 39,000  Level FlightAware Transoceanic
Wed 10:20:00 PM 41.5457 -64.0155 80° East 455 524 39,000  Level FlightAware Transoceanic
Wed 10:21:00 PM 41.5674 -63.8494 80° East 455 524 39,000  Level FlightAware Transoceanic
Wed 10:22:00 PM 41.5889 -63.6831 80° East 455 524 39,000  Level FlightAware Transoceanic
Wed 10:22:15 PM 41.5833 -63.7167 80° East 460 529 39,000  Level New York Oceanic (ODAPS)
Wed 10:23:00 PM 41.6101 -63.5168 80° East 455 524 39,000  Level FlightAware Transoceanic
Wed 10:24:00 PM 41.6311 -63.3503 80° East 455 524 39,000  Level FlightAware Transoceanic
Wed 10:25:00 PM 41.6518 -63.1838 81° East 455 524 39,000  Level FlightAware Transoceanic
Wed 10:26:00 PM 41.6724 -63.0171 81° East 455 524 39,000  Level FlightAware Transoceanic
Wed 10:27:00 PM 41.6926 -62.8503 81° East 455 524 39,000  Level FlightAware Transoceanic
Wed 10:28:00 PM 41.7088 -62.7079 81° East 460 529 39,000  Level FlightAware Transoceanic
Wed 10:29:00 PM 41.7289 -62.5394 81° East 460 529 39,000  Level FlightAware Transoceanic
Wed 10:30:00 PM 41.7487 -62.3708 81° East 460 529 39,000  Level FlightAware Transoceanic
Wed 10:31:00 PM 41.7683 -62.2021 81° East 460 529 39,000  Level FlightAware Transoceanic
Wed 10:32:00 PM 41.7876 -62.0333 81° East 460 529 39,000  Level FlightAware Transoceanic
Wed 10:33:00 PM 41.8066 -61.8644 81° East 460 529 39,000  Level FlightAware Transoceanic
Wed 10:34:00 PM 41.8255 -61.6954 82° East 460 529 39,000  Level FlightAware Transoceanic
Wed 10:35:00 PM 41.8440 -61.5262 82° East 460 529 39,000  Level FlightAware Transoceanic
Wed 10:36:00 PM 41.8624 -61.3570 82° East 460 529 39,000  Level FlightAware Transoceanic
Wed 10:36:05 PM 41.8667 -61.4000 82° East 455 524 39,000  Level New York Oceanic (ODAPS)
Wed 10:37:00 PM 41.8804 -61.1877 82° East 460 529 39,000  Level FlightAware Transoceanic
Wed 10:38:00 PM 41.8983 -61.0183 82° East 460 529 39,000  Level FlightAware Transoceanic
Wed 10:39:00 PM 41.9159 -60.8488 82° East 460 529 39,000  Level FlightAware Transoceanic
Wed 10:40:00 PM 41.9332 -60.6792 82° East 460 529 39,000  Level FlightAware Transoceanic
Wed 10:41:00 PM 41.9503 -60.5096 82° East 460 529 39,000  Level FlightAware Transoceanic
Wed 10:42:00 PM 41.9683 -60.3505 83° East 455 524 39,000  Level FlightAware Transoceanic
Wed 10:43:00 PM 41.9843 -60.1753 83° East 455 524 39,000  Level FlightAware Transoceanic
Wed 10:44:00 PM 42.0000 -60.0000 71° East 455 524 39,000  Level FlightAware Transoceanic
Wed 10:44:42 PM 42.0000 -60.0000 71° East 457 526 39,000  Level New York Oceanic (ODAPS)
Wed 10:45:00 PM 42.0410 -59.8362 71° East 455 524 39,000  Level FlightAware Transoceanic
Wed 10:46:00 PM 42.0818 -59.6722 72° East 455 524 39,000  Level FlightAware Transoceanic
Wed 10:47:00 PM 42.1223 -59.5079 72° East 455 524 39,000  Level FlightAware Transoceanic
Wed 10:48:00 PM 42.1626 -59.3435 72° East 455 524 39,000  Level FlightAware Transoceanic
Wed 10:49:00 PM 42.2026 -59.1788 72° East 455 524 39,000  Level FlightAware Transoceanic
Wed 10:49:59 PM 42.2167 -59.1333 72° East 463 533 39,000  Level New York Oceanic (ODAPS)
Wed 10:50:00 PM 42.2425 -59.0140 72° East 455 524 39,000  Level FlightAware Transoceanic
Wed 10:51:00 PM 42.2775 -58.8682 72° East 457 526 39,000  Level FlightAware Transoceanic
Wed 10:52:00 PM 42.3162 -58.7057 72° East 457 526 39,000  Level FlightAware Transoceanic
Wed 10:53:00 PM 42.3547 -58.5430 72° East 457 526 39,000  Level FlightAware Transoceanic
Wed 10:54:00 PM 42.3929 -58.3801 72° East 457 526 39,000  Level FlightAware Transoceanic
Wed 10:55:00 PM 42.4310 -58.2170 73° East 457 526 39,000  Level FlightAware Transoceanic
Wed 10:56:00 PM 42.4501 -58.1458 73° East 463 533 39,000  Level FlightAware Transoceanic
Wed 10:57:00 PM 42.4882 -57.9805 73° East 463 533 39,000  Level FlightAware Transoceanic
Wed 10:58:00 PM 42.5261 -57.8150 73° East 463 533 39,000  Level FlightAware Transoceanic
Wed 10:59:00 PM 42.5637 -57.6493 73° East 463 533 39,000  Level FlightAware Transoceanic
Wed 11:00:00 PM 42.6011 -57.4834 73° East 463 533 39,000  Level FlightAware Transoceanic
Wed 11:01:00 PM 42.6382 -57.3173 73° East 463 533 39,000  Level FlightAware Transoceanic
Wed 11:02:00 PM 42.6751 -57.1510 73° East 463 533 39,000  Level FlightAware Transoceanic
Wed 11:03:00 PM 42.7117 -56.9845 73° East 463 533 39,000  Level FlightAware Transoceanic
Wed 11:04:00 PM 42.7481 -56.8178 73° East 463 533 39,000  Level FlightAware Transoceanic
Wed 11:04:09 PM 42.7333 -56.8500 73° East 465 535 39,000  Level New York Oceanic (ODAPS)
Wed 11:05:00 PM 42.7843 -56.6509 74° East 463 533 39,000  Level FlightAware Transoceanic
Wed 11:06:00 PM 42.8202 -56.4838 74° East 463 533 39,000  Level FlightAware Transoceanic
Wed 11:07:00 PM 42.8559 -56.3165 74° East 463 533 39,000  Level FlightAware Transoceanic
Wed 11:08:00 PM 42.8913 -56.1491 74° East 463 533 39,000  Level FlightAware Transoceanic
Wed 11:09:00 PM 42.9265 -55.9814 74° East 463 533 39,000  Level FlightAware Transoceanic
Wed 11:10:00 PM 42.9491 -55.8413 74° East 465 535 39,000  Level FlightAware Transoceanic
Wed 11:11:00 PM 42.9842 -55.6724 74° East 465 535 39,000  Level FlightAware Transoceanic
Wed 11:12:00 PM 43.0191 -55.5034 74° East 465 535 39,000  Level FlightAware Transoceanic
Wed 11:13:00 PM 43.0537 -55.3343 74° East 465 535 39,000  Level FlightAware Transoceanic
Wed 11:14:00 PM 43.0881 -55.1649 75° East 465 535 39,000  Level FlightAware Transoceanic
Wed 11:15:00 PM 43.1222 -54.9953 75° East 465 535 39,000  Level FlightAware Transoceanic
Wed 11:16:00 PM 43.1560 -54.8255 75° East 465 535 39,000  Level FlightAware Transoceanic
Wed 11:17:00 PM 43.1896 -54.6556 75° East 465 535 39,000  Level FlightAware Transoceanic
Wed 11:17:50 PM 43.2167 -54.5000 75° East 464 534 39,000  Level New York Oceanic (ODAPS)
Wed 11:18:00 PM 43.2230 -54.4855 75° East 465 535 39,000  Level FlightAware Transoceanic
Wed 11:19:00 PM 43.2561 -54.3151 75° East 465 535 39,000  Level FlightAware Transoceanic
Wed 11:20:00 PM 43.2889 -54.1446 75° East 465 535 39,000  Level FlightAware Transoceanic
Wed 11:21:00 PM 43.3215 -53.9739 75° East 465 535 39,000  Level FlightAware Transoceanic
Wed 11:22:00 PM 43.3539 -53.8031 75° East 465 535 39,000  Level FlightAware Transoceanic
Wed 11:23:00 PM 43.3860 -53.6320 76° East 465 535 39,000  Level FlightAware Transoceanic
Wed 11:24:00 PM 43.4130 -53.4721 76° East 464 534 39,000  Level FlightAware Transoceanic
Wed 11:25:00 PM 43.4449 -53.3002 76° East 464 534 39,000  Level FlightAware Transoceanic
Wed 11:26:00 PM 43.4764 -53.1280 76° East 464 534 39,000  Level FlightAware Transoceanic
Wed 11:27:00 PM 43.5077 -52.9557 76° East 464 534 39,000  Level FlightAware Transoceanic
Wed 11:28:00 PM 43.5388 -52.7832 76° East 464 534 39,000  Level FlightAware Transoceanic
Wed 11:29:00 PM 43.5696 -52.6105 76° East 464 534 39,000  Level FlightAware Transoceanic
Wed 11:30:00 PM 43.6001 -52.4377 76° East 464 534 39,000  Level FlightAware Transoceanic
Wed 11:31:00 PM 43.6304 -52.2647 76° East 464 534 39,000  Level FlightAware Transoceanic
Wed 11:31:51 PM 43.6667 -52.1167 77° East 467 537 39,000  Level New York Oceanic (ODAPS)
Wed 11:32:00 PM 43.6604 -52.0915 77° East 464 534 39,000  Level FlightAware Transoceanic
Wed 11:33:00 PM 43.6902 -51.9181 77° East 464 534 39,000  Level FlightAware Transoceanic
Wed 11:34:00 PM 43.7197 -51.7445 77° East 464 534 39,000  Level FlightAware Transoceanic
Wed 11:35:00 PM 43.7489 -51.5709 77° East 464 534 39,000  Level FlightAware Transoceanic
Wed 11:36:00 PM 43.7778 -51.3970 77° East 464 534 39,000  Level FlightAware Transoceanic
Wed 11:37:00 PM 43.8065 -51.2229 77° East 464 534 39,000  Level FlightAware Transoceanic
Wed 11:38:00 PM 43.8382 -51.0613 78° East 467 537 39,000  Level FlightAware Transoceanic
Wed 11:39:00 PM 43.8659 -50.8848 78° East 467 537 39,000  Level FlightAware Transoceanic
Wed 11:40:00 PM 43.8932 -50.7082 78° East 467 537 39,000  Level FlightAware Transoceanic
Wed 11:41:00 PM 43.9203 -50.5314 78° East 467 537 39,000  Level FlightAware Transoceanic
Wed 11:42:00 PM 43.9472 -50.3544 78° East 467 537 39,000  Level FlightAware Transoceanic
Wed 11:43:00 PM 43.9737 -50.1773 78° East 467 537 39,000  Level FlightAware Transoceanic
Wed 11:44:00 PM 44.0000 -50.0000 63° Northeast 467 537 39,000  Level FlightAware Transoceanic
Wed 11:44:31 PM 44.0000 -50.0000 63° Northeast 472 543 39,000  Level New York Oceanic (ODAPS)
Wed 11:45:00 PM 44.0589 -49.8367 63° Northeast 467 537 39,000  Level FlightAware Transoceanic
Wed 11:45:34 PM 44.1000 -49.7167 63° Northeast 473 544 39,000  Level New York Oceanic (ODAPS)
Wed 11:46:00 PM 44.1175 -49.6731 64° Northeast 467 537 39,000  Level FlightAware Transoceanic
Wed 11:47:00 PM 44.1759 -49.5092 64° Northeast 467 537 39,000  Level FlightAware Transoceanic
Wed 11:48:00 PM 44.2341 -49.3449 64° Northeast 467 537 39,000  Level FlightAware Transoceanic
Wed 11:49:00 PM 44.2920 -49.1804 64° Northeast 467 537 39,000  Level FlightAware Transoceanic
Wed 11:50:00 PM 44.3497 -49.0155 64° Northeast 472 543 39,000  Level FlightAware Transoceanic
Wed 11:51:00 PM 44.4430 -48.7416 64° Northeast 473 544 39,000  Level FlightAware Transoceanic
Wed 11:52:00 PM 44.4994 -48.5780 64° Northeast 473 544 39,000  Level FlightAware Transoceanic
Wed 11:53:00 PM 44.5555 -48.4140 64° Northeast 473 544 39,000  Level FlightAware Transoceanic
Wed 11:54:00 PM 44.6114 -48.2498 65° Northeast 473 544 39,000  Level FlightAware Transoceanic
Wed 11:55:00 PM 44.6671 -48.0852 65° Northeast 473 544 39,000  Level FlightAware Transoceanic
Wed 11:56:00 PM 44.7225 -47.9203 65° Northeast 473 544 39,000  Level FlightAware Transoceanic
Wed 11:57:00 PM 44.7777 -47.7551 65° Northeast 473 544 39,000  Level FlightAware Transoceanic
Wed 11:58:00 PM 44.8326 -47.5896 65° Northeast 473 544 39,000  Level FlightAware Transoceanic
Wed 11:59:00 PM 44.8873 -47.4238 65° Northeast 473 544 39,000  Level FlightAware Transoceanic
Thu 12:00:00 AM 44.9418 -47.2576 65° Northeast 473 544 39,000  Level FlightAware Transoceanic
Thu 12:01:00 AM 44.9960 -47.0912 65° Northeast 473 544 39,000  Level FlightAware Transoceanic
Thu 12:02:00 AM 45.0500 -46.9244 65° Northeast 473 544 39,000  Level FlightAware Transoceanic
Thu 12:03:00 AM 45.1037 -46.7573 66° East 473 544 39,000  Level FlightAware Transoceanic
Thu 12:04:00 AM 45.1572 -46.5899 66° East 473 544 39,000  Level FlightAware Transoceanic
Thu 12:05:00 AM 45.2104 -46.4222 66° East 473 544 39,000  Level FlightAware Transoceanic
Thu 12:06:00 AM 45.2635 -46.2542 66° East 473 544 39,000  Level FlightAware Transoceanic
Thu 12:07:00 AM 45.3162 -46.0858 66° East 473 544 39,000  Level FlightAware Transoceanic
Thu 12:08:00 AM 45.3687 -45.9172 66° East 473 544 39,000  Level FlightAware Transoceanic
Thu 12:09:00 AM 45.4210 -45.7482 66° East 473 544 39,000  Level FlightAware Transoceanic
Thu 12:10:00 AM 45.4730 -45.5789 66° East 473 544 39,000  Level FlightAware Transoceanic
Thu 12:11:00 AM 45.5247 -45.4093 67° East 473 544 39,000  Level FlightAware Transoceanic
Thu 12:12:00 AM 45.5762 -45.2394 67° East 473 544 39,000  Level FlightAware Transoceanic
Thu 12:13:00 AM 45.6275 -45.0692 67° East 473 544 39,000  Level FlightAware Transoceanic
Thu 12:14:00 AM 45.6785 -44.8987 67° East 473 544 39,000  Level FlightAware Transoceanic
Thu 12:15:00 AM 45.7292 -44.7279 67° East 473 544 39,000  Level FlightAware Transoceanic
Thu 12:16:00 AM 45.7797 -44.5567 67° East 473 544 39,000  Level FlightAware Transoceanic
Thu 12:17:00 AM 45.8300 -44.3853 67° East 473 544 39,000  Level FlightAware Transoceanic
Thu 12:18:00 AM 45.8799 -44.2135 67° East 473 544 39,000  Level FlightAware Transoceanic
Thu 12:19:00 AM 45.9297 -44.0414 68° East 473 544 39,000  Level FlightAware Transoceanic
Thu 12:20:00 AM 45.9791 -43.8690 68° East 473 544 39,000  Level FlightAware Transoceanic
Thu 12:21:00 AM 46.0283 -43.6964 68° East 473 544 39,000  Level FlightAware Transoceanic
Thu 12:22:00 AM 46.0773 -43.5233 68° East 473 544 39,000  Level FlightAware Transoceanic
Thu 12:23:00 AM 46.1259 -43.3501 68° East 473 544 39,000  Level FlightAware Transoceanic
Thu 12:24:00 AM 46.1744 -43.1764 68° East 473 544 39,000  Level FlightAware Transoceanic
Thu 12:25:00 AM 46.2225 -43.0025 68° East 473 544 39,000  Level FlightAware Transoceanic
Thu 12:26:00 AM 46.2704 -42.8283 68° East 473 544 39,000  Level FlightAware Transoceanic
Thu 12:27:00 AM 46.3180 -42.6538 69° East 473 544 39,000  Level FlightAware Transoceanic
Thu 12:28:00 AM 46.3654 -42.4790 69° East 473 544 39,000  Level FlightAware Transoceanic
Thu 12:29:00 AM 46.4125 -42.3038 69° East 473 544 39,000  Level FlightAware Transoceanic
Thu 12:30:00 AM 46.4593 -42.1284 69° East 473 544 39,000  Level FlightAware Transoceanic
Thu 12:31:00 AM 46.5059 -41.9527 69° East 473 544 39,000  Level FlightAware Transoceanic
Thu 12:32:00 AM 46.5522 -41.7766 69° East 473 544 39,000  Level FlightAware Transoceanic
Thu 12:33:00 AM 46.5982 -41.6003 69° East 473 544 39,000  Level FlightAware Transoceanic
Thu 12:34:00 AM 46.6439 -41.4237 69° East 473 544 39,000  Level FlightAware Transoceanic
Thu 12:35:00 AM 46.6894 -41.2468 70° East 473 544 39,000  Level FlightAware Transoceanic
Thu 12:36:00 AM 46.7346 -41.0695 70° East 473 544 39,000  Level FlightAware Transoceanic
Thu 12:37:00 AM 46.7795 -40.8920 70° East 473 544 39,000  Level FlightAware Transoceanic
Thu 12:38:00 AM 46.8242 -40.7142 70° East 473 544 39,000  Level FlightAware Transoceanic
Thu 12:39:00 AM 46.8685 -40.5361 70° East 473 544 39,000  Level FlightAware Transoceanic
Thu 12:40:00 AM 46.9126 -40.3577 70° East 473 544 39,000  Level FlightAware Transoceanic
Thu 12:41:00 AM 46.9565 -40.1790 70° East 473 544 39,000  Level FlightAware Transoceanic
Thu 12:42:00 AM 47.0000 -40.0000 70° East 473 544 39,000  Level FlightAware Transoceanic
Thu 12:43:00 AM 47.0474 -39.8117 70° East 473 544 39,000  Level FlightAware Transoceanic
Thu 12:44:00 AM 47.0944 -39.6231 70° East 473 544 39,000  Level FlightAware Transoceanic
Thu 12:45:00 AM 47.1412 -39.4341 70° East 473 544 39,000  Level FlightAware Transoceanic
Thu 12:46:00 AM 47.1876 -39.2448 70° East 473 544 39,000  Level FlightAware Transoceanic
Thu 12:47:00 AM 47.2337 -39.0552 70° East 473 544 39,000  Level FlightAware Transoceanic
Thu 12:48:00 AM 47.2795 -38.8652 71° East 473 544 39,000  Level FlightAware Transoceanic
Thu 12:49:00 AM 47.3250 -38.6750 71° East 473 544 39,000  Level FlightAware Transoceanic
Thu 12:50:00 AM 47.3702 -38.4843 71° East 473 544 39,000  Level FlightAware Transoceanic
Thu 12:51:00 AM 47.4150 -38.2934 71° East 473 544 39,000  Level FlightAware Transoceanic
Thu 12:52:00 AM 47.4596 -38.1022 71° East 473 544 39,000  Level FlightAware Transoceanic
Thu 12:53:00 AM 47.5038 -37.9106 71° East 473 544 39,000  Level FlightAware Transoceanic
Thu 12:54:00 AM 47.5477 -37.7187 71° East 473 544 39,000  Level FlightAware Transoceanic
Thu 12:55:00 AM 47.5913 -37.5265 71° East 473 544 39,000  Level FlightAware Transoceanic
Thu 12:56:00 AM 47.6345 -37.3339 72° East 473 544 39,000  Level FlightAware Transoceanic
Thu 12:57:00 AM 47.6775 -37.1410 72° East 473 544 39,000  Level FlightAware Transoceanic
Thu 12:58:00 AM 47.7201 -36.9479 72° East 473 544 39,000  Level FlightAware Transoceanic
Thu 12:59:00 AM 47.7624 -36.7544 72° East 473 544 39,000  Level FlightAware Transoceanic
Thu 01:00:00 AM 47.8043 -36.5606 72° East 473 544 39,000  Level FlightAware Transoceanic
Thu 01:01:00 AM 47.8460 -36.3665 72° East 473 544 39,000  Level FlightAware Transoceanic
Thu 01:02:00 AM 47.8873 -36.1720 72° East 473 544 39,000  Level FlightAware Transoceanic
Thu 01:03:00 AM 47.9282 -35.9773 73° East 473 544 39,000  Level FlightAware Transoceanic
Thu 01:04:00 AM 47.9689 -35.7822 73° East 473 544 39,000  Level FlightAware Transoceanic
Thu 01:05:00 AM 48.0092 -35.5869 73° East 473 544 39,000  Level FlightAware Transoceanic
Thu 01:06:00 AM 48.0492 -35.3912 73° East 473 544 39,000  Level FlightAware Transoceanic
Thu 01:07:00 AM 48.0889 -35.1953 73° East 473 544 39,000  Level FlightAware Transoceanic
Thu 01:08:00 AM 48.1282 -34.9990 73° East 473 544 39,000  Level FlightAware Transoceanic
Thu 01:09:00 AM 48.1672 -34.8024 74° East 473 544 39,000  Level FlightAware Transoceanic
Thu 01:10:00 AM 48.2058 -34.6056 74° East 473 544 39,000  Level FlightAware Transoceanic
Thu 01:11:00 AM 48.2441 -34.4084 74° East 473 544 39,000  Level FlightAware Transoceanic
Thu 01:12:00 AM 48.2821 -34.2110 74° East 473 544 39,000  Level FlightAware Transoceanic
Thu 01:13:00 AM 48.3197 -34.0132 74° East 473 544 39,000  Level FlightAware Transoceanic
Thu 01:14:00 AM 48.3570 -33.8152 74° East 473 544 39,000  Level FlightAware Transoceanic
Thu 01:15:00 AM 48.3940 -33.6169 74° East 473 544 39,000  Level FlightAware Transoceanic
Thu 01:16:00 AM 48.4306 -33.4183 75° East 473 544 39,000  Level FlightAware Transoceanic
Thu 01:17:00 AM 48.4669 -33.2194 75° East 473 544 39,000  Level FlightAware Transoceanic
Thu 01:18:00 AM 48.5028 -33.0202 75° East 473 544 39,000  Level FlightAware Transoceanic
Thu 01:19:00 AM 48.5384 -32.8208 75° East 473 544 39,000  Level FlightAware Transoceanic
Thu 01:20:00 AM 48.5737 -32.6210 75° East 473 544 39,000  Level FlightAware Transoceanic
Thu 01:21:00 AM 48.6086 -32.4210 75° East 473 544 39,000  Level FlightAware Transoceanic
Thu 01:22:00 AM 48.6431 -32.2207 75° East 473 544 39,000  Level FlightAware Transoceanic
Thu 01:23:00 AM 48.6773 -32.0202 76° East 473 544 39,000  Level FlightAware Transoceanic
Thu 01:24:00 AM 48.7112 -31.8193 76° East 473 544 39,000  Level FlightAware Transoceanic
Thu 01:25:00 AM 48.7447 -31.6182 76° East 473 544 39,000  Level FlightAware Transoceanic
Thu 01:26:00 AM 48.7778 -31.4169 76° East 473 544 39,000  Level FlightAware Transoceanic
Thu 01:27:00 AM 48.8106 -31.2152 76° East 473 544 39,000  Level FlightAware Transoceanic
Thu 01:28:00 AM 48.8431 -31.0133 76° East 473 544 39,000  Level FlightAware Transoceanic
Thu 01:29:00 AM 48.8752 -30.8112 77° East 473 544 39,000  Level FlightAware Transoceanic
Thu 01:30:00 AM 48.9069 -30.6088 77° East 473 544 39,000  Level FlightAware Transoceanic
Thu 01:31:00 AM 48.9383 -30.4061 77° East 473 544 39,000  Level FlightAware Transoceanic
Thu 01:32:00 AM 48.9693 -30.2032 77° East 473 544 39,000  Level FlightAware Transoceanic
Thu 01:33:00 AM 49.0099 -30.0218 71° East  Level Estimated
Thu 01:34:00 AM 49.0501 -29.8401 71° East  Level Estimated
Thu 01:35:00 AM 49.0900 -29.6586 71° East  Level Estimated
Thu 01:36:00 AM 49.1296 -29.4768 72° East  Level Estimated
Thu 01:37:00 AM 49.1689 -29.2947 72° East  Level Estimated
Thu 01:38:00 AM 49.2079 -29.1123 72° East  Level Estimated
Thu 01:39:00 AM 49.2466 -28.9296 72° East  Level Estimated
Thu 01:40:00 AM 49.2850 -28.7467 72° East  Level Estimated
Thu 01:41:00 AM 49.3232 -28.5634 72° East  Level Estimated
Thu 01:42:00 AM 49.3611 -28.3799 72° East  Level Estimated
Thu 01:43:00 AM 49.3986 -28.1961 73° East  Level Estimated
Thu 01:44:00 AM 49.4359 -28.0120 73° East  Level Estimated
Thu 01:45:00 AM 49.4729 -27.8276 73° East  Level Estimated
Thu 01:46:00 AM 49.5096 -27.6430 73° East  Level Estimated
Thu 01:47:00 AM 49.5460 -27.4580 73° East  Level Estimated
Thu 01:48:00 AM 49.5821 -27.2728 73° East  Level Estimated
Thu 01:49:00 AM 49.6179 -27.0874 73° East  Level Estimated
Thu 01:50:00 AM 49.6534 -26.9016 73° East  Level Estimated
Thu 01:51:00 AM 49.6886 -26.7156 74° East  Level Estimated
Thu 01:52:00 AM 49.7235 -26.5293 74° East  Level Estimated
Thu 01:53:00 AM 49.7581 -26.3428 74° East  Level Estimated
Thu 01:54:00 AM 49.7924 -26.1560 74° East  Level Estimated
Thu 01:55:00 AM 49.8264 -25.9689 74° East  Level Estimated
Thu 01:56:00 AM 49.8601 -25.7815 74° East  Level Estimated
Thu 01:57:00 AM 49.8936 -25.5939 74° East  Level Estimated
Thu 01:58:00 AM 49.9267 -25.4061 75° East  Level Estimated
Thu 01:59:00 AM 49.9595 -25.2180 75° East  Level Estimated
Thu 02:00:00 AM 49.9920 -25.0296 75° East  Level Estimated
Thu 02:01:00 AM 50.0242 -24.8410 75° East  Level Estimated
Thu 02:02:00 AM 50.0560 -24.6521 75° East  Level Estimated
Thu 02:03:00 AM 50.0876 -24.4629 75° East  Level Estimated
Thu 02:04:00 AM 50.1189 -24.2736 75° East  Level Estimated
Thu 02:05:00 AM 50.1498 -24.0839 76° East  Level Estimated
Thu 02:06:00 AM 50.1805 -23.8941 76° East  Level Estimated
Thu 02:07:00 AM 50.2108 -23.7040 76° East  Level Estimated
Thu 02:08:00 AM 50.2409 -23.5136 76° East  Level Estimated
Thu 02:09:00 AM 50.2706 -23.3230 76° East  Level Estimated
Thu 02:10:00 AM 50.3000 -23.1322 76° East  Level Estimated
Thu 02:11:00 AM 50.3291 -22.9411 77° East  Level Estimated
Thu 02:12:00 AM 50.3579 -22.7498 77° East  Level Estimated
Thu 02:13:00 AM 50.3863 -22.5583 77° East  Level Estimated
Thu 02:14:00 AM 50.4145 -22.3666 77° East  Level Estimated
Thu 02:15:00 AM 50.4423 -22.1746 77° East  Level Estimated
Thu 02:16:00 AM 50.4699 -21.9824 77° East  Level Estimated
Thu 02:17:00 AM 50.4971 -21.7899 77° East  Level Estimated
Thu 02:18:00 AM 50.5240 -21.5973 78° East  Level Estimated
Thu 02:19:00 AM 50.5505 -21.4044 78° East  Level Estimated
Thu 02:20:00 AM 50.5768 -21.2113 78° East  Level Estimated
Thu 02:21:00 AM 50.6027 -21.0180 78° East  Level Estimated
Thu 02:22:00 AM 50.6283 -20.8245 78° East  Level Estimated
Thu 02:23:00 AM 50.6535 -20.6313 78° East  Level Estimated
Thu 02:24:00 AM 50.6785 -20.4378 78° East  Level Estimated
Thu 02:25:00 AM 50.7030 -20.2442 79° East  Level Estimated
Thu 02:26:00 AM 50.7273 -20.0503 79° East  Level Estimated
Thu 02:27:00 AM 50.7513 -19.8562 79° East  Level Estimated
Thu 02:28:00 AM 50.7749 -19.6620 79° East  Level Estimated
Thu 02:29:00 AM 50.7982 -19.4675 79° East  Level Estimated
Thu 02:30:00 AM 50.8212 -19.2729 79° East  Level Estimated
Thu 02:31:00 AM 50.8438 -19.0780 79° East  Level Estimated
Thu 02:32:00 AM 50.8661 -18.8830 80° East  Level Estimated
Thu 02:33:00 AM 50.8881 -18.6878 80° East  Level Estimated
Thu 02:34:00 AM 50.9098 -18.4924 80° East  Level Estimated
Thu 02:35:00 AM 50.9312 -18.2968 80° East  Level Estimated
Thu 02:36:00 AM 50.9522 -18.1011 80° East  Level Estimated
Thu 02:37:00 AM 50.9729 -17.9051 80° East  Level Estimated
Thu 02:38:00 AM 50.9933 -17.7090 81° East  Level Estimated
Thu 02:39:00 AM 51.0133 -17.5128 81° East  Level Estimated
Thu 02:40:00 AM 51.0330 -17.3163 81° East  Level Estimated
Thu 02:41:00 AM 51.0524 -17.1197 81° East  Level Estimated
Thu 02:42:00 AM 51.0714 -16.9230 81° East  Level Estimated
Thu 02:43:00 AM 51.0902 -16.7260 81° East  Level Estimated
Thu 02:44:00 AM 51.1086 -16.5289 81° East  Level Estimated
Thu 02:45:00 AM 51.1266 -16.3317 82° East  Level Estimated
Thu 02:46:00 AM 51.1443 -16.1343 82° East  Level Estimated
Thu 02:47:00 AM 51.1617 -15.9367 82° East  Level Estimated
Thu 02:48:00 AM 51.1788 -15.7390 82° East  Level Estimated
Thu 02:49:00 AM 51.1955 -15.5412 82° East  Level Estimated
Thu 02:50:00 AM 51.2119 -15.3432 82° East  Level Estimated
Thu 02:51:00 AM 51.2280 -15.1451 83° East  Level Estimated
Thu 02:52:00 AM 51.2437 -14.9468 83° East  Level Estimated
Thu 02:53:00 AM 51.2591 -14.7484 83° East  Level Estimated
Thu 02:54:00 AM 51.2741 -14.5499 83° East  Level Estimated
Thu 02:55:00 AM 51.2889 -14.3513 83° East  Level Estimated
Thu 02:56:00 AM 51.3032 -14.1525 83° East  Level Estimated
Thu 02:57:00 AM 51.3173 -13.9536 83° East  Level Estimated
Thu 02:58:00 AM 51.3310 -13.7546 84° East  Level Estimated
Thu 02:59:00 AM 51.3444 -13.5554 84° East  Level Estimated
Thu 03:00:00 AM 51.3574 -13.3562 84° East  Level Estimated
Thu 03:01:00 AM 51.3701 -13.1568 84° East  Level Estimated
Thu 03:01:57 AM 50.8000 -11.5290 84° East 498 573 39,000  Level FlightAware ADS-B
Thu 03:02:00 AM 51.3824 -12.9573 84° East  Level Estimated
Thu 03:02:42 AM 50.8360 -11.3670 71° East 498 573 39,000  Level FlightAware ADS-B
Thu 03:03:17 AM 50.8600 -11.2610 70° East 497 572 39,000  Level FlightAware ADS-B
Thu 03:03:57 AM 50.8870 -11.1450 70° East 497 572 39,000  Level FlightAware ADS-B
Thu 03:04:47 AM 50.9200 -10.9990 70° East 497 572 39,000  Level FlightAware ADS-B
Thu 03:05:27 AM 50.9590 -10.8030 72° East 496 571 39,000  Level FlightAware ADS-B
Thu 03:06:12 AM 50.9920 -10.6500 71° East 497 572 39,000  Level FlightAware ADS-B
Thu 03:06:42 AM 51.0120 -10.5560 71° East 498 573 39,000  Level FlightAware ADS-B
Thu 03:07:37 AM 51.0520 -10.3700 71° East 498 573 39,000  Level FlightAware ADS-B
Thu 03:08:17 AM 51.0790 -10.2420 71° East 496 571 39,000  Level FlightAware ADS-B
Thu 03:08:57 AM 51.1100 -10.0910 72° East 495 570 39,000  Level FlightAware ADS-B
Thu 03:09:42 AM 51.1440 -9.9290 71° East 495 570 39,000  Level FlightAware ADS-B
Thu 03:10:22 AM 51.1720 -9.7930 72° East 495 570 39,000  Level FlightAware ADS-B
Thu 03:11:07 AM 51.2040 -9.6360 72° East 496 571 39,000  Level FlightAware ADS-B
Thu 03:11:47 AM 51.2320 -9.4980 72° East 495 570 39,000  Level FlightAware ADS-B
Thu 03:12:27 AM 51.2600 -9.3600 72° East 496 571 39,000  Level FlightAware ADS-B
Thu 03:13:12 AM 51.2920 -9.2020 72° East 496 571 39,000  Level FlightAware ADS-B
Thu 03:13:52 AM 51.3200 -9.0570 73° East 498 573 39,000 -1,600 Level FlightAware ADS-B
Thu 03:14:12 AM 51.3362 -8.9748 73° East 474 545 37,400 -2,526 Descending FlightAware UK
Thu 03:14:30 AM 51.3487 -8.9121 72° East 474 545 37,400 3,840 Level FlightAware UK
Thu 03:14:37 AM 51.3510 -8.9030 72° East 498 573 39,000 250 Climbing FlightAware ADS-B
Thu 03:14:54 AM 51.3653 -8.8281 72° East 476 548 37,500 -2,743 Descending FlightAware UK
Thu 03:15:12 AM 51.3774 -8.7650 73° East 472 543 37,400 3,913 Descending FlightAware UK
Thu 03:15:17 AM 51.3800 -8.7510 73° East 497 572 39,000 250 Climbing FlightAware ADS-B
Thu 03:15:36 AM 51.3939 -8.6811 73° East 474 545 37,500 -2,432 Descending FlightAware UK
Thu 03:15:54 AM 51.4060 -8.6180 73° East 472 543 37,500 4,286 Level FlightAware UK
Thu 03:15:57 AM 51.4070 -8.6150 73° East 495 570 39,000  Climbing FlightAware ADS-B
Thu 03:16:12 AM 51.4181 -8.5550 73° East 472 543 37,500 -2,909 Descending FlightAware UK
Thu 03:16:30 AM 51.4301 -8.4919 73° East 470 541 37,400 3,000 Descending FlightAware UK
Thu 03:16:42 AM 51.4380 -8.4520 73° East 496 571 39,000  Climbing FlightAware ADS-B
Thu 03:17:00 AM 51.4502 -8.3867 73° East 474 545 37,400 -2,500 Descending FlightAware UK
Thu 03:17:18 AM 51.4623 -8.3237 73° East 472 543 37,500 4,364 Climbing FlightAware UK
Thu 03:17:22 AM 51.4630 -8.3200 73° East 495 570 39,000  Climbing FlightAware ADS-B
Thu 03:17:42 AM 51.4786 -8.2395 73° East 472 543 37,500 -2,368 Descending FlightAware UK
Thu 03:18:00 AM 51.4910 -8.1757 73° East 472 543 37,500 3,600 Level FlightAware UK
Thu 03:18:07 AM 51.4940 -8.1570 73° East 496 571 39,000  Climbing FlightAware ADS-B
Thu 03:18:24 AM 51.5072 -8.0915 73° East 468 539 37,500 -2,571 Descending FlightAware UK
Thu 03:18:42 AM 51.5192 -8.0283 73° East 470 541 37,500 3,913 Level FlightAware UK
Thu 03:18:47 AM 51.5210 -8.0160 73° East 496 571 39,000  Climbing FlightAware ADS-B
Thu 03:19:06 AM 51.5350 -7.9439 73° East 470 541 37,500 -2,432 Descending FlightAware UK
Thu 03:19:24 AM 51.5467 -7.8805 73° East 470 541 37,500 4,286 Level FlightAware UK
Thu 03:19:27 AM 51.5470 -7.8760 73° East 495 570 39,000  Climbing FlightAware ADS-B
Thu 03:19:42 AM 51.5586 -7.8172 73° East 468 539 37,500 -2,727 Descending FlightAware UK
Thu 03:20:00 AM 51.5703 -7.7538 73° East 468 539 37,500 3,000 Level FlightAware UK
Thu 03:20:12 AM 51.5750 -7.7250 73° East 496 571 39,000 -200 Climbing FlightAware ADS-B
Thu 03:20:30 AM 51.5901 -7.6481 73° East 470 541 37,400 -2,500 Descending FlightAware UK
Thu 03:20:48 AM 51.6019 -7.5846 73° East 470 541 37,500 4,364 Climbing FlightAware UK
Thu 03:20:52 AM 51.6010 -7.5790 73° East 497 572 39,000  Climbing FlightAware ADS-B
Thu 03:21:12 AM 51.6173 -7.4997 73° East 470 541 37,500 -2,368 Descending FlightAware UK
Thu 03:21:30 AM 51.6288 -7.4359 74° East 470 541 37,500 4,500 Level FlightAware UK
Thu 03:21:32 AM 51.6270 -7.4380 74° East 497 572 39,000  Climbing FlightAware ADS-B
Thu 03:21:48 AM 51.6403 -7.3721 74° East 470 541 37,500 -2,647 Descending FlightAware UK
Thu 03:22:06 AM 51.6517 -7.3082 74° East 470 541 37,500 3,103 Level FlightAware UK
Thu 03:22:17 AM 51.6570 -7.2730 74° East 498 573 39,000  Climbing FlightAware ADS-B
Thu 03:22:36 AM 51.6708 -7.2019 74° East 470 541 37,500 -2,432 Descending FlightAware UK
Thu 03:22:54 AM 51.6817 -7.1379 75° East 470 541 37,500 4,286 Level FlightAware UK
Thu 03:22:57 AM 51.6820 -7.1330 75° East 499 574 39,000  Climbing FlightAware ADS-B
Thu 03:23:12 AM 51.6930 -7.0733 75° East 470 541 37,500 -2,727 Descending FlightAware UK
Thu 03:23:30 AM 51.7043 -7.0090 74° East 472 543 37,500 3,600 Level FlightAware UK
Thu 03:23:37 AM 51.7080 -6.9880 74° East 501 577 39,000 -250 Climbing FlightAware ADS-B
Thu 03:23:54 AM 51.7194 -6.9232 74° East 474 545 37,400 -2,571 Descending FlightAware UK
Thu 03:24:12 AM 51.7307 -6.8587 74° East 476 548 37,500 3,429 Climbing FlightAware UK
Thu 03:24:22 AM 51.7360 -6.8310 74° East 500 575 39,000  Climbing FlightAware ADS-B
Thu 03:24:42 AM 51.7494 -6.7511 74° East 476 548 37,500 -2,368 Descending FlightAware UK
Thu 03:25:00 AM 51.7607 -6.6866 74° East 476 548 37,500 4,500 Level FlightAware UK
Thu 03:25:02 AM 51.7620 -6.6820 74° East 499 574 39,000  Climbing FlightAware ADS-B
Thu 03:25:18 AM 51.7718 -6.6221 74° East 474 545 37,500 -2,647 Descending FlightAware UK
Thu 03:25:36 AM 51.7711 -6.5557 91° East 472 543 37,500  Level FlightAware UK
Thu 03:25:54 AM 51.7657 -6.4897 98° East 474 545 37,500  Level FlightAware UK
Thu 03:26:12 AM 51.7608 -6.4238 97° East 472 543 37,500  Level FlightAware UK
Thu 03:26:30 AM 51.7557 -6.3578 97° East 472 543 37,500  Level FlightAware UK
Thu 03:26:48 AM 51.7514 -6.2918 96° East 470 541 37,500  Level FlightAware UK
Thu 03:27:06 AM 51.7480 -6.2255 95° East 470 541 37,500 -167 Level FlightAware UK
Thu 03:27:24 AM 51.7460 -6.1592 93° East 472 543 37,400 2,903 Descending FlightAware UK
Thu 03:27:37 AM 51.7440 -6.1170 93° East 498 573 39,000 200 Climbing FlightAware ADS-B
Thu 03:27:54 AM 51.7415 -6.0474 93° East 474 545 37,500  Descending FlightAware UK
Thu 03:28:12 AM 51.7400 -6.0050 93° East 498 573 39,000  Climbing FlightAware ADS-B
Thu 03:28:30 AM 51.7351 -5.9139 93° East 472 543 37,500 -2,500 Descending FlightAware UK
Thu 03:28:48 AM 51.7306 -5.8479 96° East 470 541 37,500 4,091 Level FlightAware UK
Thu 03:28:52 AM 51.7300 -5.8450 96° East 497 572 39,000 -250 Climbing FlightAware ADS-B
Thu 03:29:12 AM 51.7241 -5.7600 96° East 472 543 37,400 -2,368 Descending FlightAware UK
Thu 03:29:30 AM 51.7196 -5.6939 96° East 472 543 37,500 3,840 Climbing FlightAware UK
Thu 03:29:37 AM 51.7180 -5.6770 96° East 497 572 39,000  Climbing FlightAware ADS-B
Thu 03:29:54 AM 51.7138 -5.6057 96° East 472 543 37,500 -2,571 Descending FlightAware UK
Thu 03:30:12 AM 51.7093 -5.5395 96° East 476 548 37,500 3,913 Level FlightAware UK
Thu 03:30:17 AM 51.7080 -5.5270 96° East 497 572 39,000  Climbing FlightAware ADS-B
Thu 03:30:48 AM 51.7007 -5.4073 96° East 476 548 37,500  Descending FlightAware UK
Thu 03:31:02 AM 51.6970 -5.3650 96° East 497 572 39,000  Climbing FlightAware ADS-B
Thu 03:31:18 AM 51.6925 -5.2972 96° East 476 548 37,500 -2,647 Descending FlightAware UK
Thu 03:31:36 AM 51.6876 -5.2312 97° East 476 548 37,500 3,750 Level FlightAware UK
Thu 03:31:42 AM 51.6870 -5.2180 97° East 496 571 39,000  Climbing FlightAware ADS-B
Thu 03:32:00 AM 51.6813 -5.1433 97° East 476 548 37,500  Descending FlightAware UK
Thu 03:32:27 AM 51.6750 -5.0540 97° East 494 568 39,000 1,343 Climbing FlightAware ADS-B
Thu 03:33:07 AM 51.6640 -4.9090 97° East 494 568 39,000 -1,579 Level FlightAware ADS-B
Thu 03:33:24 AM 51.6595 -4.8370 97° East 476 548 37,500 -3,257 Descending FlightAware UK
Thu 03:33:42 AM 51.6544 -4.7710 97° East 470 541 37,100 2,143 Descending FlightAware UK
Thu 03:33:52 AM 51.6520 -4.7480 97° East 489 563 38,500 -2,000 Climbing FlightAware ADS-B
Thu 03:34:12 AM 51.6460 -4.6629 97° East 468 539 36,100 -2,400 Descending FlightAware UK
Thu 03:34:32 AM 51.6410 -4.6040 97° East 490 564 36,900 -2,333 Climbing FlightAware ADS-B
Thu 03:34:48 AM 51.6359 -4.5336 97° East 468 539 34,700 -5,118 Descending FlightAware UK
Thu 03:35:06 AM 51.6307 -4.4689 97° East 466 536 34,000 1,750 Descending FlightAware UK
Thu 03:35:12 AM 51.6300 -4.4580 97° East 492 566 35,400 -2,000 Climbing FlightAware ADS-B
Thu 03:35:36 AM 51.6222 -4.3605 97° East 468 539 33,000 -1,867 Descending FlightAware UK
Thu 03:35:57 AM 51.6170 -4.2910 97° East 489 563 34,000 -2,167 Climbing FlightAware ADS-B
Thu 03:36:12 AM 51.6122 -4.2304 97° East 466 536 31,700 -5,818 Descending FlightAware UK
Thu 03:36:30 AM 51.6071 -4.1657 97° East 466 536 30,800 960 Descending FlightAware UK
Thu 03:36:37 AM 51.6050 -4.1470 97° East 489 563 32,100 -1,680 Climbing FlightAware ADS-B
Thu 03:36:55 AM 51.6000 -4.0789 97° East 460 529 30,100 -1,500 Descending FlightAware UK
Thu 03:37:17 AM 51.5930 -4.0060 97° East 473 544 31,100 -1,000 Climbing FlightAware ADS-B
Thu 03:37:37 AM 51.5872 -3.9334 97° East 450 518 29,400 -133 Descending FlightAware UK
Thu 03:38:02 AM 51.5800 -3.8550 97° East 471 542 31,000 143 Climbing FlightAware ADS-B
Thu 03:38:19 AM 51.5748 -3.7874 97° East 450 518 29,500  Descending FlightAware UK
Thu 03:38:42 AM 51.5680 -3.7130 97° East 474 545 31,000 -143 Climbing FlightAware ADS-B
Thu 03:39:01 AM 51.5618 -3.6415 97° East 452 520 29,400  Descending FlightAware UK
Thu 03:39:23 AM 51.5549 -3.5651 97° East 476 548 31,000  Climbing FlightAware ADS-B
Thu 03:39:55 AM 51.5450 -3.4531 97° East 454 522 29,400  Descending FlightAware UK
Thu 03:40:07 AM 51.5420 -3.4180 97° East 474 545 31,000 2,400 Climbing FlightAware ADS-B
Thu 03:40:35 AM 51.5324 -3.3147 98° East 475 547 31,000 -100 Level FlightAware ADS-B
Thu 03:41:07 AM 51.5223 -3.2050 98° East 468 539 30,900 -2,400 Descending FlightAware ADS-B
Thu 03:41:25 AM 51.5166 -3.1428 98° East 434 499 29,000 -938 Descending FlightAware UK
Thu 03:41:39 AM 51.5121 -3.0968 98° East 450 518 30,400 -800 Climbing FlightAware ADS-B
Thu 03:41:55 AM 51.5075 -3.0454 98° East 418 481 28,600 -1,588 Descending FlightAware UK
Thu 03:42:13 AM 51.5021 -2.9920 98° East 436 502 29,500 -2,333 Climbing FlightAware ADS-B
Thu 03:42:31 AM 51.4965 -2.9333 98° East 410 472 27,200 -2,000 Descending FlightAware UK
Thu 03:42:52 AM 51.4910 -2.8780 98° East 418 481 28,200 1,241 Climbing FlightAware ADS-B
Thu 03:43:00 AM 51.4884 -2.8471 98° East 418 481 27,800 -2,250 Descending FlightAware ADS-B
Thu 03:43:32 AM 51.4802 -2.7482 98° East 410 472 26,700 -3,818 Descending FlightAware ADS-B
Thu 03:43:55 AM 51.4744 -2.6788 98° East 394 453 24,300 -1,935 Descending FlightAware UK
Thu 03:44:03 AM 51.4725 -2.6577 98° East 406 467 25,700 -1,750 Climbing FlightAware ADS-B
Thu 03:44:19 AM 51.4683 -2.6077 98° East 390 449 23,600 -1,800 Descending FlightAware UK
Thu 03:44:33 AM 51.4647 -2.5682 98° East 400 460 24,800 -1,667 Climbing FlightAware ADS-B
Thu 03:44:55 AM 51.4590 -2.5027 98° East 382 440 22,600 -1,935 Descending FlightAware UK
Thu 03:45:04 AM 51.4567 -2.4790 98° East 394 453 23,800 -2,000 Climbing FlightAware ADS-B
Thu 03:45:19 AM 51.4527 -2.4335 98° East 380 437 21,800 -1,742 Descending FlightAware UK
Thu 03:45:35 AM 51.4488 -2.3912 98° East 386 444 22,900 -1,857 Climbing FlightAware ADS-B
Thu 03:46:01 AM 51.4420 -2.3153 98° East 372 428 20,500 -2,000 Descending FlightAware UK
Thu 03:46:08 AM 51.4403 -2.2971 98° East 379 436 21,800 -2,000 Climbing FlightAware ADS-B
Thu 03:46:25 AM 51.4360 -2.2490 98° East 368 423 19,700 -1,875 Descending FlightAware UK
Thu 03:46:40 AM 51.4324 -2.2117 98° East 372 428 20,800 -1,946 Climbing FlightAware ADS-B
Thu 03:47:02 AM 51.4270 -2.1513 98° East 360 414 18,500 -2,000 Descending FlightAware UK
Thu 03:47:10 AM 51.4248 -2.1286 98° East 366 421 19,800 -2,000 Climbing FlightAware ADS-B
Thu 03:47:26 AM 51.4210 -2.0865 98° East 356 410 17,700 -1,875 Descending FlightAware UK
Thu 03:47:42 AM 51.4171 -2.0455 98° East 361 415 18,800 125 Climbing FlightAware ADS-B
Thu 03:48:14 AM 51.4093 -1.9607 98° East 357 411 17,800 -1,714 Descending FlightAware ADS-B
Thu 03:48:45 AM 51.4016 -1.8797 99° East 350 403 17,000 -3,222 Descending FlightAware ADS-B
Thu 03:49:08 AM 51.3964 -1.8223 99° East 342 394 14,900 -1,412 Descending FlightAware UK
Thu 03:49:19 AM 51.3936 -1.7956 99° East 343 395 16,200 2,077 Climbing FlightAware ADS-B
Thu 03:49:34 AM 51.3902 -1.7571 98° East 338 389 15,800 -1,500 Descending FlightAware ADS-B
Thu 03:49:43 AM 51.3878 -1.7365 101° East 337 388 15,600 -5,143 Descending FlightAware ADS-B
Thu 03:50:02 AM 51.3787 -1.6899 101° East 334 384 13,400 -1,875 Descending FlightAware UK
Thu 03:50:15 AM 51.3722 -1.6594 101° East 334 384 14,600 -1,600 Climbing FlightAware ADS-B
Thu 03:50:32 AM 51.3639 -1.6194 101° East 330 380 12,600 -1,765 Descending FlightAware UK
Thu 03:50:49 AM 51.3560 -1.5806 101° East 331 381 13,600 367 Climbing FlightAware ADS-B
Thu 03:51:21 AM 51.3413 -1.5083 108° East 322 371 12,900 -3,306 Descending FlightAware ADS-B
Thu 03:51:38 AM 51.3332 -1.4687 108° East 320 368 10,900 -1,600 Descending FlightAware UK
Thu 03:51:51 AM 51.3270 -1.4409 108° East 318 366 12,100 -800 Climbing FlightAware ADS-B
Thu 03:52:08 AM 51.3189 -1.4018 108° East 320 368 10,500 -400 Descending FlightAware UK
Thu 03:52:21 AM 51.3128 -1.3747 108° East 316 364 11,900 1,714 Climbing FlightAware ADS-B
Thu 03:52:43 AM 51.3023 -1.3259 109° East 314 361 11,500 -1,125 Descending FlightAware ADS-B
Thu 03:52:53 AM 51.2988 -1.3042 104° East 307 353 11,300 -783 Descending FlightAware ADS-B
Thu 03:53:06 AM 51.2965 -1.2758 97° East 299 344 11,200 -818 Descending FlightAware ADS-B
Thu 03:53:15 AM 51.2961 -1.2542 92° East 293 337 11,000 -480 Descending FlightAware ADS-B
Thu 03:53:31 AM 51.2965 -1.2222 89° East 280 322 11,000  Level FlightAware ADS-B
Thu 03:53:36 AM 51.2959 -1.2118 95° East 276 318 11,000  Level FlightAware ADS-B
Thu 03:53:41 AM 51.2944 -1.2012 103° East 271 312 11,000 -4,800 Level FlightAware ADS-B
Thu 03:53:56 AM 51.2886 -1.1729 103° East 262 302 9,400  Descending FlightAware UK
Thu 03:54:12 AM 51.2822 -1.1456 103° East 258 297 11,000  Climbing FlightAware ADS-B
Thu 03:54:32 AM 51.2740 -1.1083 103° East 258 297 9,400  Descending FlightAware UK
Thu 03:54:42 AM 51.2700 -1.0911 103° East 258 297 11,000 -600 Climbing FlightAware ADS-B
Thu 03:55:02 AM 51.2619 -1.0544 103° East 256 295 9,100 -1,111 Descending FlightAware UK
Thu 03:55:09 AM 51.2591 -1.0423 103° East 257 296 10,500 5,571 Climbing FlightAware ADS-B
Thu 03:55:16 AM 51.2572 -1.0307 105° East 257 296 10,400 -1,125 Descending FlightAware ADS-B
Thu 03:55:25 AM 51.2558 -1.0130 97° East 255 293 10,200 -1,286 Descending FlightAware ADS-B
Thu 03:55:30 AM 51.2558 -1.0038 90° East 254 292 10,100 -600 Descending FlightAware ADS-B
Thu 03:55:35 AM 51.2562 -0.9955 86° East 253 291 10,100 -667 Level FlightAware ADS-B
Thu 03:55:39 AM 51.2569 -0.9867 83° East 255 293 10,000 -273 Descending FlightAware ADS-B
Thu 03:55:57 AM 51.2598 -0.9548 82° East 253 291 10,000  Level FlightAware ADS-B
Thu 03:56:27 AM 51.2647 -0.9000 82° East 251 289 10,000 -1,698 Level FlightAware ADS-B
Thu 03:56:50 AM 51.2686 -0.8560 82° East 254 292 8,500  Descending FlightAware UK
Thu 03:56:57 AM 51.2696 -0.8447 82° East 250 288 10,000 4,091 Climbing FlightAware ADS-B
Thu 03:57:12 AM 51.2721 -0.8173 82° East 249 287 10,000 -387 Level FlightAware ADS-B
Thu 03:57:28 AM 51.2746 -0.7890 82° East 249 287 9,800 -968 Descending FlightAware ADS-B
Thu 03:57:43 AM 51.2772 -0.7612 81° East 246 283 9,500 -1,200 Descending FlightAware ADS-B
Thu 03:57:58 AM 51.2797 -0.7339 82° East 244 281 9,200 -968 Descending FlightAware ADS-B
Thu 03:58:14 AM 51.2821 -0.7069 82° East 246 283 9,000 -387 Descending FlightAware ADS-B
Thu 03:58:29 AM 51.2845 -0.6797 82° East 247 284 9,000  Level FlightAware ADS-B
Thu 03:58:46 AM 51.2872 -0.6486 82° East 247 284 9,000  Level FlightAware ADS-B
Thu 03:59:01 AM 51.2897 -0.6214 82° East 245 282 9,000  Level FlightAware ADS-B
Thu 03:59:16 AM 51.2920 -0.5945 82° East 246 283 9,000  Level FlightAware ADS-B
Thu 03:59:32 AM 51.2946 -0.5659 82° East 245 282 9,000  Level FlightAware ADS-B
Thu 03:59:48 AM 51.2971 -0.5377 82° East 246 283 9,000  Level FlightAware ADS-B
Thu 04:00:03 AM 51.2995 -0.5100 82° East 246 283 9,000  Level FlightAware ADS-B
Thu 04:00:18 AM 51.3020 -0.4825 82° East 246 283 9,000  Level FlightAware ADS-B
Thu 04:00:31 AM 51.3039 -0.4595 82° East 247 284 9,000  Level FlightAware ADS-B
Thu 04:00:34 AM 51.3042 -0.4539 85° East 247 284 9,000  Level FlightAware ADS-B
Thu 04:00:39 AM 51.3043 -0.4456 89° East 246 283 9,000  Level FlightAware ADS-B
Thu 04:00:42 AM 51.3042 -0.4398 92° East 246 283 9,000  Level FlightAware ADS-B
Thu 04:00:48 AM 51.3035 -0.4285 96° East 246 283 9,000  Level FlightAware ADS-B
Thu 04:00:53 AM 51.3028 -0.4208 98° East 246 283 9,000  Level FlightAware ADS-B
Thu 04:00:58 AM 51.3018 -0.4108 99° East 247 284 9,000  Level FlightAware ADS-B
Thu 04:01:15 AM 51.2995 -0.3807 97° East 245 282 9,000  Level FlightAware ADS-B
Thu 04:01:34 AM 51.2969 -0.3461 97° East 246 283 9,000  Level FlightAware ADS-B
Thu 04:01:38 AM 51.2959 -0.3383 102° East 247 284 9,000  Level FlightAware ADS-B
Thu 04:01:44 AM 51.2932 -0.3278 112° Southeast 250 288 9,000  Level FlightAware ADS-B
Thu 04:01:48 AM 51.2907 -0.3223 126° Southeast 251 289 9,000  Level FlightAware ADS-B
Thu 04:01:55 AM 51.2850 -0.3135 136° Southeast 253 291 9,000  Level FlightAware ADS-B
Thu 04:02:13 AM 51.2656 -0.3033 162° South 257 296 9,000  Level FlightAware ADS-B
Thu 04:02:16 AM 51.2620 -0.3037 185° South 258 297 9,000  Level FlightAware ADS-B
Thu 04:02:22 AM 51.2547 -0.3067 194° South 260 299 9,000  Level FlightAware ADS-B
Thu 04:02:25 AM 51.2512 -0.3094 206° Southwest 260 299 9,000  Level FlightAware ADS-B
Thu 04:02:35 AM 51.2422 -0.3213 220° Southwest 260 299 9,000  Level FlightAware ADS-B
Thu 04:02:40 AM 51.2388 -0.3294 236° Southwest 259 298 9,000  Level FlightAware ADS-B
Thu 04:02:44 AM 51.2369 -0.3361 246° West 259 298 9,000  Level FlightAware ADS-B
Thu 04:02:47 AM 51.2359 -0.3416 254° West 259 298 9,000  Level FlightAware ADS-B
Thu 04:02:51 AM 51.2353 -0.3489 263° West 258 297 9,000  Level FlightAware ADS-B
Thu 04:02:54 AM 51.2352 -0.3551 269° West 256 295 9,000  Level FlightAware ADS-B
Thu 04:02:58 AM 51.2356 -0.3607 277° West 256 295 9,000  Level FlightAware ADS-B
Thu 04:03:02 AM 51.2370 -0.3692 285° West 254 292 9,000  Level FlightAware ADS-B
Thu 04:03:08 AM 51.2397 -0.3784 295° West 253 291 9,000  Level FlightAware ADS-B
Thu 04:03:13 AM 51.2431 -0.3857 307° West 251 289 9,000  Level FlightAware ADS-B
Thu 04:03:16 AM 51.2456 -0.3896 315° West 250 288 9,000  Level FlightAware ADS-B
Thu 04:03:19 AM 51.2484 -0.3932 321° Northwest 250 288 9,000  Level FlightAware ADS-B
Thu 04:03:22 AM 51.2516 -0.3967 326° Northwest 248 285 9,000  Level FlightAware ADS-B
Thu 04:03:38 AM 51.2670 -0.4115 329° Northwest 248 285 9,000  Level FlightAware ADS-B
Thu 04:03:53 AM 51.2822 -0.4252 331° Northwest 248 285 9,000  Level FlightAware ADS-B
Thu 04:04:07 AM 51.2954 -0.4371 331° Northwest 247 284 9,000  Level FlightAware ADS-B
Thu 04:04:19 AM 51.3079 -0.4482 331° Northwest 246 283 9,000  Level FlightAware ADS-B
Thu 04:04:23 AM 51.3121 -0.4508 339° North 245 282 9,000  Level FlightAware ADS-B
Thu 04:04:32 AM 51.3227 -0.4529 353° North 243 280 9,000  Level FlightAware ADS-B
Thu 04:04:36 AM 51.3264 -0.4521 North 241 277 9,000  Level FlightAware ADS-B
Thu 04:04:39 AM 51.3297 -0.4507 15° North 242 278 9,000  Level FlightAware ADS-B
Thu 04:04:44 AM 51.3354 -0.4468 24° Northeast 242 278 9,000  Level FlightAware ADS-B
Thu 04:04:48 AM 51.3388 -0.4432 33° Northeast 244 281 9,000 -600 Level FlightAware ADS-B
Thu 04:04:54 AM 51.3436 -0.4362 43° Northeast 247 284 8,900 -1,200 Descending FlightAware ADS-B
Thu 04:04:58 AM 51.3465 -0.4300 53° Northeast 249 287 8,800 -750 Descending FlightAware ADS-B
Thu 04:05:02 AM 51.3484 -0.4237 64° Northeast 251 289 8,800 -750 Level FlightAware ADS-B
Thu 04:05:06 AM 51.3499 -0.4162 72° East 252 290 8,700 -1,200 Descending FlightAware ADS-B
Thu 04:05:12 AM 51.3507 -0.4059 83° East 252 290 8,600 -857 Descending FlightAware ADS-B
Thu 04:05:20 AM 51.3494 -0.3916 98° East 251 289 8,500 -800 Descending FlightAware ADS-B
Thu 04:05:27 AM 51.3456 -0.3793 116° Southeast 251 289 8,400 -1,091 Descending FlightAware ADS-B
Thu 04:05:31 AM 51.3427 -0.3735 129° Southeast 250 288 8,300 -1,091 Descending FlightAware ADS-B
Thu 04:05:38 AM 51.3370 -0.3655 139° Southeast 251 289 8,200 -1,091 Descending FlightAware ADS-B
Thu 04:05:42 AM 51.3323 -0.3608 148° Southeast 250 288 8,100 -571 Descending FlightAware ADS-B
Thu 04:05:59 AM 51.3160 -0.3457 150° Southeast 250 288 8,000 -188 Descending FlightAware ADS-B
Thu 04:06:14 AM 51.3006 -0.3319 151° Southeast 251 289 8,000  Level FlightAware ADS-B
Thu 04:06:29 AM 51.2855 -0.3183 151° Southeast 249 287 8,000  Level FlightAware ADS-B
Thu 04:06:42 AM 51.2720 -0.3088 156° South 252 290 8,000  Level FlightAware ADS-B
Thu 04:06:45 AM 51.2685 -0.3079 171° South 253 291 8,000  Level FlightAware ADS-B
Thu 04:06:49 AM 51.2642 -0.3077 178° South 254 292 8,000  Level FlightAware ADS-B
Thu 04:06:57 AM 51.2549 -0.3109 192° South 256 295 8,000  Level FlightAware ADS-B
Thu 04:07:02 AM 51.2496 -0.3151 206° Southwest 257 296 8,000  Level FlightAware ADS-B
Thu 04:07:11 AM 51.2419 -0.3265 223° Southwest 255 293 8,000  Level FlightAware ADS-B
Thu 04:07:16 AM 51.2390 -0.3344 240° Southwest 254 292 8,000  Level FlightAware ADS-B
Thu 04:07:22 AM 51.2367 -0.3456 252° West 253 291 8,000  Level FlightAware ADS-B
Thu 04:07:27 AM 51.2362 -0.3540 265° West 252 290 8,000  Level FlightAware ADS-B
Thu 04:07:31 AM 51.2366 -0.3624 274° West 251 289 8,000  Level FlightAware ADS-B
Thu 04:07:39 AM 51.2392 -0.3752 288° West 248 285 8,000  Level FlightAware ADS-B
Thu 04:07:43 AM 51.2418 -0.3821 301° West 247 284 8,000  Level FlightAware ADS-B
Thu 04:07:46 AM 51.2440 -0.3864 309° West 247 284 8,000  Level FlightAware ADS-B
Thu 04:07:53 AM 51.2496 -0.3942 319° Northwest 246 283 8,000  Level FlightAware ADS-B
Thu 04:08:03 AM 51.2598 -0.4044 328° Northwest 245 282 8,000  Level FlightAware ADS-B
Thu 04:08:10 AM 51.2662 -0.4105 329° Northwest 245 282 8,000  Level FlightAware ADS-B
Thu 04:08:27 AM 51.2831 -0.4259 330° Northwest 243 280 8,000  Level FlightAware ADS-B
Thu 04:08:42 AM 51.2978 -0.4394 330° Northwest 241 277 8,000  Level FlightAware ADS-B
Thu 04:08:49 AM 51.3046 -0.4456 330° Northwest 243 280 8,000  Level FlightAware ADS-B
Thu 04:08:53 AM 51.3086 -0.4488 333° Northwest 243 280 8,000  Level FlightAware ADS-B
Thu 04:08:59 AM 51.3149 -0.4522 341° North 243 280 8,000  Level FlightAware ADS-B
Thu 04:09:06 AM 51.3220 -0.4530 356° North 240 276 8,000  Level FlightAware ADS-B
Thu 04:09:11 AM 51.3280 -0.4512 10° North 239 275 8,000  Level FlightAware ADS-B
Thu 04:09:14 AM 51.3312 -0.4494 20° North 238 274 8,000  Level FlightAware ADS-B
Thu 04:09:18 AM 51.3347 -0.4466 26° Northeast 238 274 8,000  Level FlightAware ADS-B
Thu 04:09:21 AM 51.3375 -0.4438 33° Northeast 239 275 8,000  Level FlightAware ADS-B
Thu 04:09:25 AM 51.3408 -0.4391 41° Northeast 240 276 8,000  Level FlightAware ADS-B
Thu 04:09:28 AM 51.3430 -0.4350 50° Northeast 240 276 8,000  Level FlightAware ADS-B
Thu 04:09:32 AM 51.3456 -0.4288 56° Northeast 241 277 8,000  Level FlightAware ADS-B
Thu 04:09:37 AM 51.3477 -0.4206 68° East 240 276 8,000  Level FlightAware ADS-B
Thu 04:09:43 AM 51.3490 -0.4104 78° East 241 277 8,000  Level FlightAware ADS-B
Thu 04:09:47 AM 51.3490 -0.4033 90° East 242 278 8,000 -1,000 Level FlightAware ADS-B
Thu 04:09:55 AM 51.3475 -0.3889 99° East 246 283 7,800 -1,000 Descending FlightAware ADS-B
Thu 04:09:59 AM 51.3460 -0.3826 111° Southeast 248 285 7,800 -1,091 Level FlightAware ADS-B
Thu 04:10:06 AM 51.3413 -0.3711 123° Southeast 249 287 7,600 -1,000 Descending FlightAware ADS-B
Thu 04:10:11 AM 51.3380 -0.3656 134° Southeast 250 288 7,600 -750 Level FlightAware ADS-B
Thu 04:10:14 AM 51.3352 -0.3621 142° Southeast 251 289 7,500 -1,714 Descending FlightAware ADS-B
Thu 04:10:18 AM 51.3314 -0.3583 148° Southeast 251 289 7,400 -1,000 Descending FlightAware ADS-B
Thu 04:10:26 AM 51.3221 -0.3532 161° South 250 288 7,300 -1,000 Descending FlightAware ADS-B
Thu 04:10:36 AM 51.3109 -0.3527 179° South 251 289 7,100 -857 Descending FlightAware ADS-B
Thu 04:10:40 AM 51.3056 -0.3547 193° South 251 289 7,100 -545 Level FlightAware ADS-B
Thu 04:10:47 AM 51.2984 -0.3600 205° Southwest 250 288 7,000 -429 Descending FlightAware ADS-B
Thu 04:10:54 AM 51.2924 -0.3677 219° Southwest 254 292 7,000  Level FlightAware ADS-B
Thu 04:10:57 AM 51.2899 -0.3720 227° Southwest 254 292 7,000  Level FlightAware ADS-B
Thu 04:11:00 AM 51.2877 -0.3769 235° Southwest 253 291 7,000  Level FlightAware ADS-B
Thu 04:11:05 AM 51.2854 -0.3837 241° Southwest 254 292 7,000  Level FlightAware ADS-B
Thu 04:11:08 AM 51.2839 -0.3903 250° West 255 293 7,000  Level FlightAware ADS-B
Thu 04:11:13 AM 51.2827 -0.3985 257° West 253 291 7,000  Level FlightAware ADS-B
Thu 04:11:16 AM 51.2823 -0.4048 264° West 252 290 7,000  Level FlightAware ADS-B
Thu 04:11:21 AM 51.2826 -0.4137 273° West 251 289 7,000  Level FlightAware ADS-B
Thu 04:11:24 AM 51.2834 -0.4198 282° West 251 289 7,000  Level FlightAware ADS-B
Thu 04:11:28 AM 51.2847 -0.4265 287° West 251 289 7,000  Level FlightAware ADS-B
Thu 04:11:33 AM 51.2868 -0.4340 294° West 250 288 7,000  Level FlightAware ADS-B
Thu 04:11:37 AM 51.2888 -0.4407 296° West 250 288 7,000  Level FlightAware ADS-B
Thu 04:11:41 AM 51.2910 -0.4482 295° West 249 287 7,000  Level FlightAware ADS-B
Thu 04:11:46 AM 51.2932 -0.4566 293° West 249 287 7,000  Level FlightAware ADS-B
Thu 04:11:57 AM 51.2971 -0.4749 289° West 250 288 7,000  Level FlightAware ADS-B
Thu 04:12:12 AM 51.3021 -0.5019 287° West 252 290 7,000  Level FlightAware ADS-B
Thu 04:12:27 AM 51.3070 -0.5298 286° West 252 290 7,000  Level FlightAware ADS-B
Thu 04:12:41 AM 51.3113 -0.5544 286° West 253 291 7,000  Level FlightAware ADS-B
Thu 04:12:58 AM 51.3163 -0.5837 285° West 253 291 7,000  Level FlightAware ADS-B
Thu 04:13:13 AM 51.3209 -0.6119 285° West 252 290 7,000  Level FlightAware ADS-B
Thu 04:13:28 AM 51.3254 -0.6390 285° West 251 289 7,000 -188 Level FlightAware ADS-B
Thu 04:13:45 AM 51.3303 -0.6693 284° West 254 292 6,900 -545 Descending FlightAware ADS-B
Thu 04:14:01 AM 51.3347 -0.6980 284° West 251 289 6,700 -643 Descending FlightAware ADS-B
Thu 04:14:13 AM 51.3382 -0.7202 284° West 251 289 6,600 -375 Descending FlightAware ADS-B
Thu 04:14:17 AM 51.3393 -0.7262 286° West 250 288 6,600 -750 Level FlightAware ADS-B
Thu 04:14:21 AM 51.3412 -0.7332 293° West 246 283 6,500 -750 Descending FlightAware ADS-B
Thu 04:14:25 AM 51.3435 -0.7402 298° West 243 280 6,500 -375 Level FlightAware ADS-B
Thu 04:14:37 AM 51.3500 -0.7575 301° West 241 277 6,400 -414 Descending FlightAware ADS-B
Thu 04:14:54 AM 51.3607 -0.7833 304° West 237 273 6,300 -522 Descending FlightAware ADS-B
Thu 04:15:00 AM 51.3646 -0.7920 306° West 235 270 6,200 -500 Descending FlightAware ADS-B
Thu 04:15:06 AM 51.3686 -0.7994 311° West 234 269 6,200 -286 Level FlightAware ADS-B
Thu 04:15:21 AM 51.3803 -0.8173 316° Northwest 235 270 6,100 -545 Descending FlightAware ADS-B
Thu 04:15:28 AM 51.3859 -0.8251 319° Northwest 233 268 6,000 -800 Descending FlightAware ADS-B
Thu 04:15:36 AM 51.3934 -0.8324 329° Northwest 222 255 5,900 -923 Descending FlightAware ADS-B
Thu 04:15:41 AM 51.3975 -0.8348 340° North 211 243 5,800 -667 Descending FlightAware ADS-B
Thu 04:15:45 AM 51.4010 -0.8361 347° North 204 235 5,800  Level FlightAware ADS-B
Thu 04:15:52 AM 51.4075 -0.8376 352° North 195 224 5,800 -545 Level FlightAware ADS-B
Thu 04:16:07 AM 51.4207 -0.8401 353° North 182 209 5,600 -1,000 Descending FlightAware ADS-B
Thu 04:16:16 AM 51.4280 -0.8413 354° North 180 207 5,400 -1,000 Descending FlightAware ADS-B
Thu 04:16:19 AM 51.4308 -0.8414 359° North 178 205 5,400 -1,500 Level FlightAware ADS-B
Thu 04:16:24 AM 51.4345 -0.8405 North 174 200 5,200 -2,000 Descending FlightAware ADS-B
Thu 04:16:28 AM 51.4375 -0.8389 18° North 170 196 5,100 -1,500 Descending FlightAware ADS-B
Thu 04:16:32 AM 51.4399 -0.8367 30° Northeast 168 193 5,000 -1,500 Descending FlightAware ADS-B
Thu 04:16:36 AM 51.4424 -0.8332 41° Northeast 166 191 4,900 -2,250 Descending FlightAware ADS-B
Thu 04:16:40 AM 51.4444 -0.8294 50° Northeast 163 188 4,700 -2,667 Descending FlightAware ADS-B
Thu 04:16:45 AM 51.4462 -0.8248 58° Northeast 162 186 4,500 -2,471 Descending FlightAware ADS-B
Thu 04:16:57 AM 51.4507 -0.8125 60° Northeast 166 191 4,000 -1,714 Descending FlightAware ADS-B
Thu 04:17:13 AM 51.4574 -0.7950 58° Northeast 167 192 3,700 -828 Descending FlightAware ADS-B
Thu 04:17:26 AM 51.4623 -0.7819 59° Northeast 165 190 3,600 -444 Descending FlightAware ADS-B
Thu 04:17:40 AM 51.4678 -0.7671 59° Northeast 168 193 3,500 -720 Descending FlightAware ADS-B
Thu 04:17:51 AM 51.4722 -0.7544 61° Northeast 168 193 3,300 -1,059 Descending FlightAware ADS-B
Thu 04:17:57 AM 51.4745 -0.7479 61° Northeast 168 193 3,200 -1,091 Descending FlightAware ADS-B
Thu 04:18:02 AM 51.4760 -0.7421 67° East 168 193 3,100 -667 Descending FlightAware ADS-B
Thu 04:18:06 AM 51.4768 -0.7377 74° East 169 194 3,100 -857 Level FlightAware ADS-B
Thu 04:18:09 AM 51.4772 -0.7337 81° East 170 196 3,000 -857 Descending FlightAware ADS-B
Thu 04:18:13 AM 51.4775 -0.7288 84° East 170 196 3,000  Level FlightAware ADS-B
Thu 04:18:16 AM 51.4776 -0.7250 88° East 171 197 3,000 -1,091 Level FlightAware ADS-B
Thu 04:18:24 AM 51.4773 -0.7147 93° East 171 197 2,800 -1,385 Descending FlightAware ADS-B
Thu 04:18:29 AM 51.4770 -0.7084 94° East 171 197 2,700 -857 Descending FlightAware ADS-B
Thu 04:18:45 AM 51.4765 -0.6892 92° East 165 190 2,500 -1,043 Descending FlightAware ADS-B
Thu 04:18:52 AM 51.4764 -0.6803 91° East 159 183 2,300 -1,043 Descending FlightAware ADS-B
Thu 04:19:08 AM 51.4766 -0.6620 89° East 151 174 2,100 -774 Descending FlightAware ADS-B
Thu 04:19:23 AM 51.4769 -0.6453 88° East 150 173 1,900 -783 Descending FlightAware ADS-B
Thu 04:19:31 AM 51.4770 -0.6361 89° East 150 173 1,800 -800 Descending FlightAware ADS-B
Thu 04:19:38 AM 51.4770 -0.6287 90° East 150 173 1,700 -818 Descending FlightAware ADS-B
Thu 04:19:53 AM 51.4768 -0.6127 91° East 151 174 1,500 -960 Descending FlightAware ADS-B
Thu 04:20:03 AM 51.4769 -0.6016 89° East 150 173 1,300 -889 Descending FlightAware ADS-B
Thu 04:20:20 AM 51.4772 -0.5823 89° East 150 173 1,100 -735 Descending FlightAware ADS-B
Thu 04:20:52 AM 51.4770 -0.5520 91° East 131 151 700 -737 Descending FlightAware ADS-B
Thu 04:21:17 AM 51.4770 -0.5270 90° East 132 152 400 -720 Descending FlightAware ADS-B
Thu 04:21:47 AM 51.4770 -0.5020 90° East 130 150 -800 Descending FlightAware ADS-B
Thu 04:22:27 AM 51.4780 -0.4650 88° East 131 151  Level FlightAware ADS-B

Login

Don't have an account? Register now (free) for customized features, flight alerts, and more!